CYUT

Details ICAO CYUT (YUT)
Name REPULSE BAY
Region Canada
Timezone America/Rankin_Inlet (UTC-5.0)
Plans Departing 2
Arriving 10
Stats Elevation 80 ft / 24 m (AMSL)
Location 66.521389° -86.224724°
Runways 1
Magnetic Variation 18.413° W
Sunrise 2018-05-25 07:14:31 UTC / 2018-05-25 02:14:31 Local
Sunset 2018-05-26 04:12:04 UTC / 2018-05-25 23:12:04 Local
Advertisement - Login to hide

Runways

ID Width Length Bearing (true) Bearing (mag) Surface Threshold Offset Overrun Length
16T 100 ft / 30 m 3,392 ft / 1,034 m 161.02° 179.43° Gravel 0 ft / 0 m 0 ft / 0 m
34T 100 ft / 30 m 3,392 ft / 1,034 m 341.03° 359.44° Gravel 0 ft / 0 m 0 ft / 0 m

Map

Weather


0- 5 10 15 20 25 30 35+ Temperature / ° C

Clouds and Precipitation
Forecast for 2018-05-25 18:00 UTC. Updated 6 hours ago

Ground ~20,000 ft ~40,000 ft Winds

METAR

CYUT 252200Z 32010KT 25SM BKN015 M04/M08 A3012 RMK SC7 -3.8/-5.8/0.0/7.0 SNW CVR/MEDIUM PACK LAST STFD OB/NXT 261400Z SLP204

TAF

TAF CYUT 251838Z 2519/2522 33012G22KT P6SM FEW020 BKN040 TEMPO 2519/2522 5SM -SN BR BKN020 RMK NXT FCST WILL BE ISSUED AT 261545Z

Frequencies

Unicom 122.10 MHz MANDATORY FREQ
Warning: Do not use this data for real-world aviation or navigation. No guarantee of current accuracy is given.